Time;durP1;ratioP1;P1;durP2;ratioP2;P2;SDS_P1;SDS_P2;PMS_P1;PMS_P2;Temp;Humidity;BMP_temperature;BMP_pressure;BME280_temperature;BME280_humidity;BME280_pressure;Samples;Min_cycle;Max_cycle;Signal;HPM_P1;HPM_P2
2022/05/29 00:06:47;;;;;;;6.60;2.17;;;;;;;;;;6212902;23;20211;-86
2022/05/29 00:09:53;;;;;;;6.33;2.47;;;;;;;;;;6219224;23;20326;-87
2022/05/29 00:12:58;;;;;;;5.23;2.10;;;;;;;;;;6218982;23;20227;-86
2022/05/29 00:16:03;;;;;;;4.33;2.00;;;;;;;;;;6184408;23;20221;-87
2022/05/29 00:19:08;;;;;;;3.17;1.60;;;;;;;;;;6218945;23;20213;-86
2022/05/29 00:22:16;;;;;;;3.67;1.77;;;;;;;;;;6219022;23;20271;-86
2022/05/29 00:25:21;;;;;;;4.37;1.70;;;;;;;;;;6200405;23;20396;-86
2022/05/29 00:28:27;;;;;;;3.95;2.00;;;;;;;;;;6218656;23;20171;-87
2022/05/29 00:31:32;;;;;;;5.57;1.93;;;;;;;;;;6218590;23;20199;-87
2022/05/29 00:34:37;;;;;;;6.63;2.10;;;;;;;;;;6218715;23;20171;-87
2022/05/29 00:37:43;;;;;;;5.17;2.07;;;;;;;;;;6218614;23;20179;-87
2022/05/29 00:40:53;;;;;;;5.23;1.97;;;;;;;;;;6218890;23;20262;-87
2022/05/29 00:44:08;;;;;;;4.40;2.10;;;;;;;;;;6219641;23;20167;-86
2022/05/29 00:47:16;;;;;;;5.87;2.00;;;;;;;;;;6225597;23;20547;-86
2022/05/29 00:50:22;;;;;;;6.77;2.03;;;;;;;;;;6225637;23;20222;-85
2022/05/29 00:53:30;;;;;;;3.50;1.77;;;;;;;;;;6241876;23;20175;-86
2022/05/29 00:56:35;;;;;;;3.75;1.90;;;;;;;;;;6239552;23;20174;-86
2022/05/29 00:59:41;;;;;;;7.18;2.20;;;;;;;;;;6237773;23;20215;-87
2022/05/29 01:02:47;;;;;;;4.67;2.10;;;;;;;;;;6233379;23;20173;-87
2022/05/29 01:05:52;;;;;;;5.63;2.30;;;;;;;;;;6218892;23;20198;-86
2022/05/29 01:09:00;;;;;;;2.80;1.87;;;;;;;;;;6219713;23;20171;-85
2022/05/29 01:12:07;;;;;;;4.63;1.97;;;;;;;;;;6221559;23;20195;-86
2022/05/29 01:15:18;;;;;;;3.87;1.90;;;;;;;;;;6219794;23;20221;-86
2022/05/29 01:18:28;;;;;;;4.80;2.00;;;;;;;;;;6221476;23;20401;-86
2022/05/29 01:21:48;;;;;;;5.17;1.80;;;;;;;;;;6224430;23;20167;-85
2022/05/29 01:25:17;;;;;;;5.50;2.00;;;;;;;;;;6207549;23;20167;-86
2022/05/29 01:28:38;;;;;;;5.20;1.97;;;;;;;;;;6227038;23;20191;-85
2022/05/29 01:31:47;;;;;;;5.10;2.30;;;;;;;;;;6225479;23;20203;-86
2022/05/29 01:34:57;;;;;;;4.80;1.80;;;;;;;;;;6224732;23;20479;-87
2022/05/29 01:38:03;;;;;;;6.20;1.90;;;;;;;;;;6222345;23;20222;-84
2022/05/29 01:41:09;;;;;;;7.30;2.17;;;;;;;;;;6220456;23;20535;-85
2022/05/29 01:44:18;;;;;;;8.97;2.30;;;;;;;;;;6220647;23;20195;-86
2022/05/29 01:47:26;;;;;;;4.97;1.90;;;;;;;;;;6221742;23;20171;-86
2022/05/29 01:50:36;;;;;;;9.27;2.30;;;;;;;;;;6226370;23;20194;-84
2022/05/29 01:53:45;;;;;;;6.67;2.03;;;;;;;;;;6225656;23;20183;-85
2022/05/29 01:56:52;;;;;;;2.67;1.80;;;;;;;;;;6224199;23;20183;-86
2022/05/29 02:00:01;;;;;;;4.27;2.10;;;;;;;;;;6220716;23;20531;-85
2022/05/29 02:03:07;;;;;;;7.33;2.07;;;;;;;;;;6202964;23;20179;-86
2022/05/29 02:06:15;;;;;;;6.67;1.70;;;;;;;;;;6219525;23;20812;-86
2022/05/29 02:09:22;;;;;;;8.13;2.27;;;;;;;;;;6220581;23;20170;-85
2022/05/29 02:12:28;;;;;;;11.57;1.80;;;;;;;;;;6202514;23;20543;-86
2022/05/29 02:15:39;;;;;;;7.53;2.00;;;;;;;;;;6219846;23;20175;-85
2022/05/29 02:18:48;;;;;;;3.70;2.00;;;;;;;;;;6220516;23;20218;-85
2022/05/29 02:21:56;;;;;;;8.20;2.13;;;;;;;;;;6220061;23;20171;-85
2022/05/29 02:25:04;;;;;;;4.73;1.90;;;;;;;;;;6219698;23;20176;-85
2022/05/29 02:28:11;;;;;;;6.17;1.90;;;;;;;;;;6221289;23;20516;-85
2022/05/29 02:31:21;;;;;;;4.73;2.00;;;;;;;;;;6221095;23;20614;-85
2022/05/29 02:34:30;;;;;;;4.40;1.87;;;;;;;;;;6202755;23;20167;-85
2022/05/29 02:37:42;;;;;;;6.00;2.10;;;;;;;;;;6220046;23;20207;-85
2022/05/29 02:40:50;;;;;;;6.80;1.97;;;;;;;;;;6219243;23;20171;-86
2022/05/29 02:43:59;;;;;;;6.60;1.97;;;;;;;;;;6220141;23;20170;-85
2022/05/29 02:47:09;;;;;;;2.70;2.00;;;;;;;;;;6202260;23;20421;-86
2022/05/29 02:50:33;;;;;;;4.53;1.80;;;;;;;;;;6202706;23;20170;-85
2022/05/29 02:53:43;;;;;;;3.90;1.80;;;;;;;;;;6220057;23;20615;-85
2022/05/29 02:56:49;;;;;;;5.57;2.67;;;;;;;;;;6202764;23;20244;-86
2022/05/29 02:59:58;;;;;;;4.50;2.10;;;;;;;;;;6220949;23;20180;-86
2022/05/29 03:03:11;;;;;;;8.00;2.33;;;;;;;;;;6220059;23;20168;-86
2022/05/29 03:06:24;;;;;;;3.73;1.90;;;;;;;;;;6219259;23;20673;-86
2022/05/29 03:09:38;;;;;;;3.80;2.17;;;;;;;;;;6220255;23;20179;-86
2022/05/29 03:12:47;;;;;;;4.47;1.70;;;;;;;;;;6221021;23;20176;-86
2022/05/29 03:15:56;;;;;;;6.13;2.30;;;;;;;;;;6218644;23;20175;-86
2022/05/29 03:19:09;;;;;;;3.87;2.00;;;;;;;;;;6220025;23;20287;-86
2022/05/29 03:22:19;;;;;;;7.20;2.40;;;;;;;;;;6203903;23;20190;-86
2022/05/29 03:25:27;;;;;;;3.63;1.83;;;;;;;;;;6218290;23;20175;-86
2022/05/29 03:28:35;;;;;;;6.30;2.10;;;;;;;;;;6220436;23;20191;-86
2022/05/29 03:31:42;;;;;;;4.10;2.13;;;;;;;;;;6219261;23;20199;-86
2022/05/29 03:34:48;;;;;;;5.87;2.37;;;;;;;;;;6225677;23;20170;-86
2022/05/29 03:37:54;;;;;;;3.50;2.10;;;;;;;;;;6219457;23;20604;-86
2022/05/29 03:40:59;;;;;;;7.03;2.40;;;;;;;;;;6219179;23;20249;-86
2022/05/29 03:44:04;;;;;;;6.07;2.20;;;;;;;;;;6219533;23;20178;-86
2022/05/29 03:47:09;;;;;;;6.30;2.33;;;;;;;;;;6219061;23;20175;-86
2022/05/29 03:50:17;;;;;;;4.27;2.00;;;;;;;;;;6219159;23;20183;-86
2022/05/29 03:53:22;;;;;;;7.97;2.20;;;;;;;;;;6219472;23;20171;-86
2022/05/29 03:56:28;;;;;;;6.53;2.20;;;;;;;;;;6218577;23;20179;-86
2022/05/29 03:59:33;;;;;;;4.80;2.20;;;;;;;;;;6220467;23;20540;-86
2022/05/29 04:02:39;;;;;;;10.03;2.53;;;;;;;;;;6218456;23;20167;-86
2022/05/29 04:05:45;;;;;;;5.13;2.10;;;;;;;;;;6219570;23;20191;-86
2022/05/29 04:12:13;;;;;;;4.20;2.23;;;;;;;;;;6219966;23;20194;-86
2022/05/29 04:18:50;;;;;;;5.20;2.03;;;;;;;;;;6223538;23;20183;-86
2022/05/29 04:21:57;;;;;;;4.67;2.00;;;;;;;;;;6241902;23;20208;-86
2022/05/29 04:25:02;;;;;;;6.10;2.03;;;;;;;;;;6242067;23;20151;-85
2022/05/29 04:28:08;;;;;;;4.67;2.20;;;;;;;;;;6243281;23;20156;-84
2022/05/29 04:31:15;;;;;;;4.67;2.40;;;;;;;;;;6243433;23;20244;-85
2022/05/29 04:34:20;;;;;;;4.77;2.37;;;;;;;;;;6243884;23;20171;-85
2022/05/29 04:37:28;;;;;;;5.07;2.20;;;;;;;;;;6226166;23;20191;-84
2022/05/29 04:40:34;;;;;;;6.30;1.80;;;;;;;;;;6243501;23;20211;-83
2022/05/29 04:43:41;;;;;;;3.70;2.40;;;;;;;;;;6243374;23;20179;-85
2022/05/29 04:46:47;;;;;;;4.77;2.40;;;;;;;;;;6228599;23;20170;-85
2022/05/29 04:49:53;;;;;;;6.77;2.60;;;;;;;;;;6241317;23;20174;-86
2022/05/29 04:53:02;;;;;;;6.43;2.63;;;;;;;;;;6239504;23;20194;-86
2022/05/29 04:56:09;;;;;;;5.73;2.40;;;;;;;;;;6233812;23;20167;-86
2022/05/29 04:59:15;;;;;;;6.33;2.63;;;;;;;;;;6223942;23;20179;-86
2022/05/29 05:02:20;;;;;;;4.43;2.50;;;;;;;;;;6222580;23;20503;-86
2022/05/29 05:05:25;;;;;;;3.80;2.20;;;;;;;;;;6204299;23;20190;-85
2022/05/29 05:08:32;;;;;;;3.87;1.97;;;;;;;;;;6204482;23;20413;-85
2022/05/29 05:11:37;;;;;;;5.43;1.90;;;;;;;;;;6220705;23;20191;-85
2022/05/29 05:14:43;;;;;;;7.00;2.67;;;;;;;;;;6220605;23;20412;-86
2022/05/29 05:17:48;;;;;;;6.43;2.93;;;;;;;;;;6220712;23;20187;-86
2022/05/29 05:20:54;;;;;;;4.80;2.20;;;;;;;;;;6225209;23;20556;-87
2022/05/29 05:24:01;;;;;;;5.00;1.98;;;;;;;;;;6203856;23;20166;-86
2022/05/29 05:27:12;;;;;;;11.98;4.22;;;;;;;;;;6220282;23;20555;-86
2022/05/29 05:30:17;;;;;;;5.57;2.93;;;;;;;;;;6220094;23;20183;-86
2022/05/29 05:33:22;;;;;;;5.30;2.50;;;;;;;;;;6219911;23;20263;-85
2022/05/29 05:36:28;;;;;;;5.93;2.30;;;;;;;;;;6220886;23;20253;-86
2022/05/29 05:39:34;;;;;;;3.67;1.80;;;;;;;;;;6220041;23;20171;-86
2022/05/29 05:42:41;;;;;;;5.53;1.73;;;;;;;;;;6220867;23;20167;-87
2022/05/29 05:45:47;;;;;;;4.30;1.60;;;;;;;;;;6202141;23;20179;-86
2022/05/29 05:48:52;;;;;;;3.05;1.88;;;;;;;;;;6220227;23;20213;-86
2022/05/29 05:52:00;;;;;;;9.10;1.83;;;;;;;;;;6203087;23;20199;-87
2022/05/29 05:55:07;;;;;;;4.07;1.60;;;;;;;;;;6218805;23;20175;-87
2022/05/29 05:58:12;;;;;;;9.75;1.90;;;;;;;;;;6220820;23;20221;-87
2022/05/29 06:01:18;;;;;;;7.15;1.58;;;;;;;;;;6220951;23;20286;-86
2022/05/29 06:04:23;;;;;;;6.13;1.70;;;;;;;;;;6222480;23;20294;-87
2022/05/29 06:07:28;;;;;;;4.32;1.55;;;;;;;;;;6202478;23;20179;-86
2022/05/29 06:10:35;;;;;;;2.08;1.30;;;;;;;;;;6202064;23;20447;-87
2022/05/29 06:13:43;;;;;;;2.70;1.38;;;;;;;;;;6203689;23;20167;-86
2022/05/29 06:16:48;;;;;;;5.10;1.40;;;;;;;;;;6202465;23;20195;-86
2022/05/29 06:19:53;;;;;;;6.10;1.60;;;;;;;;;;6219903;23;20174;-86
2022/05/29 06:22:58;;;;;;;4.65;1.40;;;;;;;;;;6220842;23;20171;-88
2022/05/29 06:26:06;;;;;;;5.45;1.33;;;;;;;;;;6220475;23;20179;-86
2022/05/29 06:29:11;;;;;;;8.63;2.00;;;;;;;;;;6220844;23;20179;-87
2022/05/29 06:32:18;;;;;;;4.93;1.40;;;;;;;;;;6219878;23;20199;-88
2022/05/29 06:35:24;;;;;;;4.38;1.55;;;;;;;;;;6220110;23;20371;-86
2022/05/29 06:38:29;;;;;;;2.72;1.30;;;;;;;;;;6220063;23;20175;-87
2022/05/29 06:41:39;;;;;;;2.67;1.30;;;;;;;;;;6220529;23;20175;-86
2022/05/29 06:44:44;;;;;;;5.47;1.38;;;;;;;;;;6220790;23;20175;-85
2022/05/29 06:47:49;;;;;;;4.57;1.30;;;;;;;;;;6220882;23;20171;-86
2022/05/29 06:50:54;;;;;;;4.97;1.40;;;;;;;;;;6219892;23;20170;-86
2022/05/29 06:54:01;;;;;;;4.00;1.40;;;;;;;;;;6213225;23;20176;-85
2022/05/29 06:57:10;;;;;;;3.72;1.25;;;;;;;;;;6236966;23;20183;-85
2022/05/29 07:07:03;;;;;;;5.13;1.63;;;;;;;;;;6224676;23;20187;-85
2022/05/29 07:10:08;;;;;;;4.25;1.52;;;;;;;;;;6225981;23;20238;-86
2022/05/29 07:13:15;;;;;;;6.50;1.55;;;;;;;;;;6202611;23;20263;-85
2022/05/29 07:16:20;;;;;;;5.18;1.30;;;;;;;;;;6219389;23;20584;-86
2022/05/29 07:19:28;;;;;;;4.35;1.80;;;;;;;;;;6219980;23;20175;-86
2022/05/29 07:22:34;;;;;;;5.88;1.40;;;;;;;;;;6220777;23;20171;-86
2022/05/29 07:25:39;;;;;;;2.38;1.10;;;;;;;;;;6220908;23;20226;-87
2022/05/29 07:28:46;;;;;;;4.05;1.48;;;;;;;;;;6229509;23;20175;-86
2022/05/29 07:31:52;;;;;;;4.50;1.35;;;;;;;;;;6221901;23;20270;-86
2022/05/29 07:34:57;;;;;;;3.88;1.55;;;;;;;;;;6219908;23;20246;-86
2022/05/29 07:38:03;;;;;;;2.72;1.38;;;;;;;;;;6220780;23;20570;-87
2022/05/29 07:44:28;;;;;;;3.75;1.45;;;;;;;;;;6210644;23;20219;-86
2022/05/29 07:47:37;;;;;;;4.57;1.38;;;;;;;;;;6223389;23;20474;-86
2022/05/29 07:50:42;;;;;;;4.30;1.30;;;;;;;;;;6221934;23;20183;-86
2022/05/29 07:53:48;;;;;;;4.32;1.42;;;;;;;;;;6223359;23;20575;-86
2022/05/29 07:56:54;;;;;;;3.22;1.35;;;;;;;;;;6222998;23;20294;-88
2022/05/29 08:00:01;;;;;;;5.30;1.75;;;;;;;;;;6223880;23;20236;-87
2022/05/29 08:03:17;;;;;;;4.35;1.88;;;;;;;;;;6226337;23;20187;-86
2022/05/29 08:06:24;;;;;;;6.63;1.60;;;;;;;;;;6227474;23;20193;-87
2022/05/29 08:09:29;;;;;;;4.72;1.30;;;;;;;;;;6223223;23;20223;-85
2022/05/29 08:12:35;;;;;;;5.88;1.48;;;;;;;;;;6210762;23;20194;-87
2022/05/29 08:15:42;;;;;;;5.43;1.70;;;;;;;;;;6227055;23;20253;-86
2022/05/29 08:18:47;;;;;;;5.68;1.48;;;;;;;;;;6225265;23;20174;-86
2022/05/29 08:21:53;;;;;;;3.38;1.10;;;;;;;;;;6228152;23;20174;-86
2022/05/29 08:31:46;;;;;;;2.45;1.15;;;;;;;;;;6222069;23;20167;-87
2022/05/29 08:34:51;;;;;;;11.05;6.25;;;;;;;;;;6220693;23;20213;-89
2022/05/29 08:37:56;;;;;;;5.10;1.77;;;;;;;;;;6221969;23;20183;-90
2022/05/29 08:41:03;;;;;;;3.95;1.42;;;;;;;;;;6223306;23;20171;-86
2022/05/29 08:44:10;;;;;;;2.30;1.10;;;;;;;;;;6224199;23;20170;-88
2022/05/29 08:47:18;;;;;;;4.65;1.25;;;;;;;;;;6221869;23;20170;-88
2022/05/29 08:50:25;;;;;;;2.33;1.10;;;;;;;;;;6229286;23;20524;-87
2022/05/29 08:53:35;;;;;;;3.83;1.42;;;;;;;;;;6222078;23;20317;-87
2022/05/29 08:56:46;;;;;;;6.65;1.50;;;;;;;;;;6219460;23;20207;-87
2022/05/29 08:59:53;;;;;;;4.05;1.27;;;;;;;;;;6220612;23;20178;-88
2022/05/29 09:03:08;;;;;;;4.20;1.30;;;;;;;;;;6203424;23;20170;-89
2022/05/29 09:06:15;;;;;;;4.13;1.15;;;;;;;;;;6221695;23;20190;-89
2022/05/29 09:09:25;;;;;;;3.03;1.20;;;;;;;;;;6221365;23;20171;-87
2022/05/29 09:12:34;;;;;;;6.72;1.60;;;;;;;;;;6222128;23;20643;-88
2022/05/29 09:15:41;;;;;;;5.88;1.63;;;;;;;;;;6223032;23;20175;-88
2022/05/29 09:18:51;;;;;;;5.38;1.45;;;;;;;;;;6223772;23;20170;-88
2022/05/29 09:22:00;;;;;;;6.03;1.50;;;;;;;;;;6224948;23;20179;-88
2022/05/29 09:25:09;;;;;;;6.00;1.20;;;;;;;;;;6223776;23;20258;-88
2022/05/29 09:28:16;;;;;;;2.95;1.30;;;;;;;;;;6225317;23;20171;-87
2022/05/29 09:31:29;;;;;;;6.97;1.40;;;;;;;;;;6227416;23;20178;-87
2022/05/29 09:34:36;;;;;;;3.75;1.20;;;;;;;;;;6206913;23;20175;-88
2022/05/29 09:37:48;;;;;;;3.58;1.10;;;;;;;;;;6222863;23;20559;-88
2022/05/29 09:41:12;;;;;;;6.07;1.83;;;;;;;;;;6223255;23;20535;-87
2022/05/29 09:44:19;;;;;;;3.88;1.42;;;;;;;;;;6223733;23;20366;-89
2022/05/29 09:50:59;;;;;;;5.60;2.05;;;;;;;;;;6222095;23;20175;-87
2022/05/29 09:54:07;;;;;;;5.53;2.20;;;;;;;;;;6205186;23;20199;-86
2022/05/29 09:57:14;;;;;;;6.63;2.13;;;;;;;;;;6220668;23;20176;-87
2022/05/29 10:00:26;;;;;;;7.97;2.13;;;;;;;;;;6223823;23;20179;-88
2022/05/29 10:03:44;;;;;;;6.75;2.30;;;;;;;;;;6223664;23;20175;-88
2022/05/29 10:06:54;;;;;;;4.47;1.80;;;;;;;;;;6220824;23;20195;-88
2022/05/29 10:10:01;;;;;;;5.65;1.98;;;;;;;;;;6205070;23;20241;-88
2022/05/29 10:13:08;;;;;;;4.38;2.00;;;;;;;;;;6222565;23;20198;-89
2022/05/29 10:16:15;;;;;;;8.00;2.08;;;;;;;;;;6222836;23;20178;-86
2022/05/29 10:19:33;;;;;;;5.15;2.00;;;;;;;;;;6222390;23;20175;-88
2022/05/29 10:22:47;;;;;;;5.78;1.90;;;;;;;;;;6226487;23;20183;-87
2022/05/29 10:25:56;;;;;;;4.18;1.55;;;;;;;;;;6222814;23;20175;-88
2022/05/29 10:29:06;;;;;;;4.03;1.63;;;;;;;;;;6223971;23;20175;-87
2022/05/29 10:32:14;;;;;;;6.57;1.65;;;;;;;;;;6223745;23;20175;-87
2022/05/29 10:35:24;;;;;;;6.05;1.70;;;;;;;;;;6227760;23;20215;-88
2022/05/29 10:38:31;;;;;;;5.18;1.65;;;;;;;;;;6224303;23;20178;-88
2022/05/29 10:41:39;;;;;;;5.85;1.60;;;;;;;;;;6223429;23;20179;-88
2022/05/29 10:44:46;;;;;;;8.27;2.22;;;;;;;;;;6223529;23;20278;-88
2022/05/29 10:48:02;;;;;;;5.47;2.17;;;;;;;;;;6224010;23;20406;-88
2022/05/29 10:51:16;;;;;;;8.05;2.17;;;;;;;;;;6203669;23;20260;-88
2022/05/29 10:54:28;;;;;;;5.40;1.88;;;;;;;;;;6222537;23;20198;-88
2022/05/29 10:57:42;;;;;;;9.50;2.88;;;;;;;;;;6222536;23;20179;-88
2022/05/29 11:00:54;;;;;;;9.32;1.95;;;;;;;;;;6221447;23;20267;-87
2022/05/29 11:04:07;;;;;;;4.47;1.63;;;;;;;;;;6223942;23;20171;-88
2022/05/29 11:07:22;;;;;;;8.90;2.20;;;;;;;;;;6222773;23;20226;-88
2022/05/29 11:10:37;;;;;;;6.22;2.05;;;;;;;;;;6222756;23;20175;-88
2022/05/29 11:13:51;;;;;;;3.38;1.90;;;;;;;;;;6205614;23;20195;-88
2022/05/29 11:17:02;;;;;;;5.32;1.48;;;;;;;;;;6221525;23;20175;-87
2022/05/29 11:20:17;;;;;;;5.43;1.90;;;;;;;;;;6222983;23;20242;-87
2022/05/29 11:23:28;;;;;;;4.82;1.50;;;;;;;;;;6221867;23;20172;-88
2022/05/29 11:26:42;;;;;;;4.35;1.48;;;;;;;;;;6222394;23;20419;-87
2022/05/29 11:29:54;;;;;;;14.20;1.50;;;;;;;;;;6225667;23;20178;-88
2022/05/29 11:33:07;;;;;;;5.35;1.50;;;;;;;;;;6231104;23;20199;-88
2022/05/29 11:36:23;;;;;;;4.18;1.27;;;;;;;;;;6240478;23;20236;-87
2022/05/29 11:39:33;;;;;;;3.47;1.13;;;;;;;;;;6241119;23;20163;-86
2022/05/29 11:42:45;;;;;;;4.47;1.15;;;;;;;;;;6240381;23;20158;-87
2022/05/29 11:52:49;;;;;;;5.25;1.20;;;;;;;;;;6239400;23;20220;-87
2022/05/29 11:55:57;;;;;;;5.97;1.63;;;;;;;;;;6239372;23;20171;-87
2022/05/29 11:59:08;;;;;;;4.40;1.25;;;;;;;;;;6238743;23;20167;-87
2022/05/29 12:02:21;;;;;;;5.30;1.65;;;;;;;;;;6230648;23;20240;-87
2022/05/29 12:05:28;;;;;;;4.70;1.35;;;;;;;;;;6220730;23;20234;-87
2022/05/29 12:08:37;;;;;;;6.80;1.25;;;;;;;;;;6219967;23;20191;-88
2022/05/29 12:11:44;;;;;;;4.43;1.20;;;;;;;;;;6221311;23;20175;-88
2022/05/29 12:14:56;;;;;;;3.45;1.45;;;;;;;;;;6220155;23;20237;-89
2022/05/29 12:18:04;;;;;;;3.92;1.20;;;;;;;;;;6225860;23;20314;-87
2022/05/29 12:21:11;;;;;;;4.03;1.48;;;;;;;;;;6222963;23;20222;-88
2022/05/29 12:24:21;;;;;;;2.72;1.27;;;;;;;;;;6221073;23;20179;-88
2022/05/29 12:27:30;;;;;;;3.55;1.00;;;;;;;;;;6224208;23;20400;-87
2022/05/29 12:30:40;;;;;;;3.10;1.23;;;;;;;;;;6222009;23;20171;-88
2022/05/29 12:33:47;;;;;;;3.55;1.20;;;;;;;;;;6204874;23;20202;-87
2022/05/29 12:37:06;;;;;;;3.25;1.20;;;;;;;;;;6221141;23;20209;-87
2022/05/29 12:44:48;;;;;;;3.85;1.10;;;;;;;;;;6185720;23;20211;-88
2022/05/29 12:48:15;;;;;;;4.78;1.40;;;;;;;;;;6223054;23;20183;-87
2022/05/29 12:51:36;;;;;;;3.13;1.50;;;;;;;;;;6221757;23;20218;-88
2022/05/29 12:55:00;;;;;;;3.22;1.10;;;;;;;;;;6202598;23;20195;-90
2022/05/29 12:58:21;;;;;;;4.63;1.48;;;;;;;;;;6220078;23;20176;-89
2022/05/29 13:01:38;;;;;;;6.13;1.67;;;;;;;;;;6220793;23;20175;-88
2022/05/29 13:05:03;;;;;;;5.95;1.50;;;;;;;;;;6222614;23;20175;-89
2022/05/29 13:08:24;;;;;;;5.28;1.17;;;;;;;;;;6206822;23;20335;-89
2022/05/29 13:11:33;;;;;;;5.45;1.48;;;;;;;;;;6210914;23;20172;-88
2022/05/29 13:15:04;;;;;;;2.10;1.00;;;;;;;;;;6209450;23;20195;-88
2022/05/29 13:18:22;;;;;;;2.60;1.27;;;;;;;;;;6224383;23;20259;-89
2022/05/29 13:21:28;;;;;;;4.57;1.23;;;;;;;;;;6225562;23;20179;-89
2022/05/29 13:24:35;;;;;;;3.38;1.05;;;;;;;;;;6225125;23;20512;-88
2022/05/29 13:27:43;;;;;;;6.72;1.10;;;;;;;;;;6227738;23;20206;-89
2022/05/29 13:31:12;;;;;;;5.47;1.10;;;;;;;;;;6224090;23;20254;-88
2022/05/29 13:34:28;;;;;;;3.13;1.00;;;;;;;;;;6223471;23;20258;-89
2022/05/29 13:37:40;;;;;;;3.30;1.30;;;;;;;;;;6205969;23;20540;-87
2022/05/29 13:40:48;;;;;;;4.15;1.23;;;;;;;;;;6206761;23;20176;-89
2022/05/29 13:43:54;;;;;;;3.80;1.10;;;;;;;;;;6224166;23;20519;-87
2022/05/29 13:47:20;;;;;;;2.75;1.45;;;;;;;;;;6223681;23;20216;-88
2022/05/29 13:50:36;;;;;;;4.95;1.60;;;;;;;;;;6221843;23;20308;-89
2022/05/29 13:53:50;;;;;;;5.57;1.30;;;;;;;;;;6225510;23;20241;-88
2022/05/29 13:57:03;;;;;;;4.85;1.13;;;;;;;;;;6224477;23;20179;-88
2022/05/29 14:07:12;;;;;;;3.45;1.20;;;;;;;;;;6221330;23;20203;-87
2022/05/29 14:10:27;;;;;;;4.68;1.30;;;;;;;;;;6204012;23;20171;-89
2022/05/29 14:13:38;;;;;;;3.33;1.20;;;;;;;;;;6222383;23;20250;-88
2022/05/29 14:16:45;;;;;;;3.92;1.10;;;;;;;;;;6220413;23;20256;-88
2022/05/29 14:20:11;;;;;;;5.28;1.33;;;;;;;;;;6220775;23;20303;-88
2022/05/29 14:23:31;;;;;;;3.95;1.50;;;;;;;;;;6223842;23;20251;-88
2022/05/29 14:26:53;;;;;;;1.90;1.08;;;;;;;;;;6223952;23;20223;-88
2022/05/29 14:30:06;;;;;;;4.60;1.27;;;;;;;;;;6222678;23;20203;-89
2022/05/29 14:33:29;;;;;;;5.65;1.27;;;;;;;;;;6222596;23;20425;-89
2022/05/29 14:36:41;;;;;;;4.30;1.42;;;;;;;;;;6222225;23;20174;-87
2022/05/29 14:39:51;;;;;;;5.22;1.70;;;;;;;;;;6204952;23;20183;-89
2022/05/29 14:42:58;;;;;;;3.88;1.20;;;;;;;;;;6223994;23;20187;-89
2022/05/29 14:46:18;;;;;;;6.30;1.38;;;;;;;;;;6225053;23;20195;-87
2022/05/29 14:49:31;;;;;;;5.72;1.20;;;;;;;;;;6230083;23;20179;-89
2022/05/29 14:52:41;;;;;;;7.97;1.13;;;;;;;;;;6231898;23;20411;-87
2022/05/29 14:55:49;;;;;;;6.13;1.90;;;;;;;;;;6227755;23;20238;-88
2022/05/29 14:58:56;;;;;;;4.75;1.30;;;;;;;;;;6228212;23;20294;-88
2022/05/29 15:02:08;;;;;;;3.92;1.10;;;;;;;;;;6227532;23;20258;-87
2022/05/29 15:05:17;;;;;;;4.60;1.20;;;;;;;;;;6230247;23;20238;-88
2022/05/29 15:11:50;;;;;;;1.77;0.93;;;;;;;;;;6237409;23;20272;-88
2022/05/29 15:15:17;;;;;;;1.10;0.77;;;;;;;;;;6237496;23;20191;-87
2022/05/29 15:18:26;;;;;;;4.45;1.40;;;;;;;;;;6219523;23;20224;-88
2022/05/29 15:25:09;;;;;;;3.30;1.52;;;;;;;;;;6240796;23;20155;-87
2022/05/29 15:28:14;;;;;;;6.25;2.00;;;;;;;;;;6242952;23;20219;-87
2022/05/29 15:31:27;;;;;;;2.75;1.40;;;;;;;;;;6243402;23;20179;-88
2022/05/29 15:34:57;;;;;;;5.95;1.27;;;;;;;;;;6243940;23;20207;-87
2022/05/29 15:38:10;;;;;;;3.97;1.38;;;;;;;;;;6243916;23;20196;-88
2022/05/29 15:41:21;;;;;;;4.28;1.30;;;;;;;;;;6243197;23;20231;-88
2022/05/29 15:48:04;;;;;;;2.78;1.15;;;;;;;;;;6221384;23;20207;-89
2022/05/29 15:51:18;;;;;;;6.90;1.90;;;;;;;;;;6217695;23;20171;-88
2022/05/29 15:54:38;;;;;;;4.07;1.10;;;;;;;;;;6234860;23;20194;-88
2022/05/29 15:57:45;;;;;;;2.17;1.00;;;;;;;;;;6232193;23;20167;-88
2022/05/29 16:01:02;;;;;;;4.32;1.38;;;;;;;;;;6225838;23;20178;-89
2022/05/29 16:04:08;;;;;;;3.60;1.00;;;;;;;;;;6223773;23;20604;-88
2022/05/29 16:07:37;;;;;;;3.13;1.20;;;;;;;;;;6224677;23;20194;-88
2022/05/29 16:10:51;;;;;;;1.98;1.20;;;;;;;;;;6225363;23;20214;-89
2022/05/29 16:14:06;;;;;;;3.40;1.42;;;;;;;;;;6225423;23;20510;-88
2022/05/29 16:20:38;;;;;;;3.40;1.15;;;;;;;;;;6225064;23;20187;-88
2022/05/29 16:23:56;;;;;;;2.28;1.00;;;;;;;;;;6206215;23;20213;-89
2022/05/29 16:27:06;;;;;;;2.45;1.50;;;;;;;;;;6224250;23;20175;-88
2022/05/29 16:30:23;;;;;;;2.65;1.08;;;;;;;;;;6224200;23;20183;-88
2022/05/29 16:33:37;;;;;;;2.47;1.17;;;;;;;;;;6228358;23;20183;-88
2022/05/29 16:48:07;;;;;;;2.00;1.20;;;;;;;;;;6209244;23;20238;-88
2022/05/29 16:51:14;;;;;;;2.45;1.00;;;;;;;;;;6229800;23;20174;-89
2022/05/29 16:54:31;;;;;;;3.05;1.10;;;;;;;;;;6229379;23;20313;-86
2022/05/29 16:57:44;;;;;;;2.47;1.17;;;;;;;;;;6230937;23;20175;-88
2022/05/29 17:04:36;;;;;;;5.05;1.10;;;;;;;;;;6229631;23;20208;-88
2022/05/29 17:07:52;;;;;;;4.50;1.48;;;;;;;;;;6211041;23;20231;-89
2022/05/29 17:11:00;;;;;;;3.67;1.30;;;;;;;;;;6213167;23;20172;-87
2022/05/29 17:14:14;;;;;;;5.82;1.40;;;;;;;;;;6228912;23;20231;-88
2022/05/29 17:17:20;;;;;;;2.25;1.10;;;;;;;;;;6227467;23;20250;-89
2022/05/29 17:20:29;;;;;;;5.03;1.38;;;;;;;;;;6211578;23;20232;-86
2022/05/29 17:23:40;;;;;;;3.50;1.52;;;;;;;;;;6195614;23;20206;-87
2022/05/29 17:26:50;;;;;;;3.65;1.33;;;;;;;;;;6236413;23;20199;-87
2022/05/29 17:30:03;;;;;;;3.72;1.20;;;;;;;;;;6234866;23;20179;-89
2022/05/29 17:33:12;;;;;;;3.70;1.30;;;;;;;;;;6235549;23;20198;-88
2022/05/29 17:36:20;;;;;;;7.47;2.85;;;;;;;;;;6235337;23;20210;-86
2022/05/29 17:39:28;;;;;;;7.32;2.45;;;;;;;;;;6238139;23;20199;-87
2022/05/29 17:42:34;;;;;;;3.75;1.52;;;;;;;;;;6235269;23;20179;-87
2022/05/29 17:45:46;;;;;;;5.65;1.40;;;;;;;;;;6215811;23;20166;-87
2022/05/29 17:49:01;;;;;;;4.97;1.30;;;;;;;;;;6235892;23;20227;-87
2022/05/29 17:52:08;;;;;;;4.15;1.30;;;;;;;;;;6216786;23;20160;-87
2022/05/29 17:55:18;;;;;;;3.70;1.20;;;;;;;;;;6232437;23;20190;-87
2022/05/29 17:58:26;;;;;;;2.53;1.30;;;;;;;;;;6225067;23;20179;-87
2022/05/29 18:01:36;;;;;;;6.25;1.40;;;;;;;;;;6226732;23;20547;-87
2022/05/29 18:04:44;;;;;;;2.33;1.30;;;;;;;;;;6227632;23;20167;-88
2022/05/29 18:07:53;;;;;;;5.13;1.60;;;;;;;;;;6210681;23;20194;-88
2022/05/29 18:11:02;;;;;;;5.50;1.40;;;;;;;;;;6227209;23;20211;-87
2022/05/29 18:14:10;;;;;;;5.07;1.50;;;;;;;;;;6227836;23;20167;-88
2022/05/29 18:17:18;;;;;;;4.18;1.20;;;;;;;;;;6228681;23;20190;-88
2022/05/29 18:20:24;;;;;;;4.25;1.60;;;;;;;;;;6209133;23;20406;-86
2022/05/29 18:23:35;;;;;;;3.72;1.75;;;;;;;;;;6226978;23;20231;-87
2022/05/29 18:26:41;;;;;;;4.85;1.60;;;;;;;;;;6225753;23;20167;-88
2022/05/29 18:29:50;;;;;;;5.30;1.52;;;;;;;;;;6225997;23;20175;-88
2022/05/29 18:32:59;;;;;;;5.20;2.42;;;;;;;;;;6208704;23;20159;-87
2022/05/29 18:36:08;;;;;;;8.10;1.98;;;;;;;;;;6223497;23;20269;-87
2022/05/29 18:39:15;;;;;;;3.40;1.60;;;;;;;;;;6190781;23;20232;-86
2022/05/29 18:42:20;;;;;;;5.78;1.83;;;;;;;;;;6224461;23;20179;-85
2022/05/29 18:45:26;;;;;;;3.70;1.42;;;;;;;;;;6205758;23;20175;-86
2022/05/29 18:48:32;;;;;;;10.65;2.10;;;;;;;;;;6222678;23;20171;-87
2022/05/29 18:51:37;;;;;;;6.53;1.52;;;;;;;;;;6224215;23;20175;-87
2022/05/29 18:54:43;;;;;;;5.55;2.28;;;;;;;;;;6205865;23;20202;-87
2022/05/29 18:57:54;;;;;;;5.53;2.17;;;;;;;;;;6207048;23;20555;-89
2022/05/29 19:01:01;;;;;;;4.38;1.73;;;;;;;;;;6225238;23;20191;-87
2022/05/29 19:04:08;;;;;;;4.70;1.98;;;;;;;;;;6225483;23;20365;-87
2022/05/29 19:07:15;;;;;;;3.58;1.70;;;;;;;;;;6208159;23;20193;-87
2022/05/29 19:10:21;;;;;;;9.77;2.15;;;;;;;;;;6205891;23;20203;-86
2022/05/29 19:13:27;;;;;;;5.68;1.50;;;;;;;;;;6223587;23;20179;-86
2022/05/29 19:16:33;;;;;;;6.25;1.50;;;;;;;;;;6226243;23;20227;-87
2022/05/29 19:19:41;;;;;;;6.43;1.60;;;;;;;;;;6230772;23;20214;-85
2022/05/29 19:22:46;;;;;;;6.32;1.70;;;;;;;;;;6212693;23;20175;-86
2022/05/29 19:26:01;;;;;;;17.17;8.27;;;;;;;;;;6222782;23;20543;-85
2022/05/29 19:29:07;;;;;;;5.20;2.30;;;;;;;;;;6207084;23;20249;-86
2022/05/29 19:32:14;;;;;;;4.53;1.95;;;;;;;;;;6182049;23;20175;-87
2022/05/29 19:35:22;;;;;;;5.85;1.50;;;;;;;;;;6222724;23;20245;-88
2022/05/29 19:38:28;;;;;;;3.58;1.67;;;;;;;;;;6222651;23;20183;-87
2022/05/29 19:41:34;;;;;;;4.32;2.00;;;;;;;;;;6223377;23;20179;-89
2022/05/29 19:44:42;;;;;;;4.50;1.98;;;;;;;;;;6234153;23;20198;-86
